sensor_id;sensor_type;location;lat;lon;timestamp;P1;durP1;ratioP1;P2;durP2;ratioP2
8636;SDS011;4356;49.068;8.658;2023-05-08T00:01:06;0.80;;;0.80;;
8636;SDS011;4356;49.068;8.658;2023-05-08T00:03:32;1.00;;;1.00;;
8636;SDS011;4356;49.068;8.658;2023-05-08T00:05:57;0.70;;;0.70;;
8636;SDS011;4356;49.068;8.658;2023-05-08T00:08:23;1.00;;;1.00;;
8636;SDS011;4356;49.068;8.658;2023-05-08T00:10:49;1.00;;;1.00;;
8636;SDS011;4356;49.068;8.658;2023-05-08T00:13:14;0.70;;;0.70;;
8636;SDS011;4356;49.068;8.658;2023-05-08T00:15:40;1.30;;;1.30;;
8636;SDS011;4356;49.068;8.658;2023-05-08T00:18:05;0.87;;;0.87;;
8636;SDS011;4356;49.068;8.658;2023-05-08T00:20:31;0.73;;;0.73;;
8636;SDS011;4356;49.068;8.658;2023-05-08T00:22:58;0.50;;;0.50;;
8636;SDS011;4356;49.068;8.658;2023-05-08T00:25:23;1.00;;;1.00;;
8636;SDS011;4356;49.068;8.658;2023-05-08T00:27:49;1.00;;;0.83;;
8636;SDS011;4356;49.068;8.658;2023-05-08T00:30:15;0.63;;;0.63;;
8636;SDS011;4356;49.068;8.658;2023-05-08T00:32:40;0.70;;;0.70;;
8636;SDS011;4356;49.068;8.658;2023-05-08T00:35:06;0.80;;;0.80;;
8636;SDS011;4356;49.068;8.658;2023-05-08T00:37:32;1.10;;;1.10;;
8636;SDS011;4356;49.068;8.658;2023-05-08T00:39:57;0.60;;;0.60;;
8636;SDS011;4356;49.068;8.658;2023-05-08T00:42:23;0.90;;;0.90;;
8636;SDS011;4356;49.068;8.658;2023-05-08T00:44:48;0.90;;;0.90;;
8636;SDS011;4356;49.068;8.658;2023-05-08T00:47:14;0.77;;;0.77;;
8636;SDS011;4356;49.068;8.658;2023-05-08T00:49:40;0.80;;;0.80;;
8636;SDS011;4356;49.068;8.658;2023-05-08T00:52:06;0.90;;;0.90;;
8636;SDS011;4356;49.068;8.658;2023-05-08T00:54:35;0.77;;;0.77;;
8636;SDS011;4356;49.068;8.658;2023-05-08T00:57:03;1.07;;;1.07;;
8636;SDS011;4356;49.068;8.658;2023-05-08T00:59:31;0.80;;;0.80;;
8636;SDS011;4356;49.068;8.658;2023-05-08T01:01:58;0.83;;;0.83;;
8636;SDS011;4356;49.068;8.658;2023-05-08T01:04:24;0.43;;;0.43;;
8636;SDS011;4356;49.068;8.658;2023-05-08T01:06:51;0.80;;;0.80;;
8636;SDS011;4356;49.068;8.658;2023-05-08T01:09:17;0.73;;;0.73;;
8636;SDS011;4356;49.068;8.658;2023-05-08T01:11:51;0.70;;;0.70;;
8636;SDS011;4356;49.068;8.658;2023-05-08T01:20:02;0.60;;;0.60;;
8636;SDS011;4356;49.068;8.658;2023-05-08T01:36:13;0.70;;;0.70;;
8636;SDS011;4356;49.068;8.658;2023-05-08T01:41:17;1.00;;;1.00;;
8636;SDS011;4356;49.068;8.658;2023-05-08T01:43:52;0.67;;;0.67;;
8636;SDS011;4356;49.068;8.658;2023-05-08T01:46:27;1.20;;;1.20;;
8636;SDS011;4356;49.068;8.658;2023-05-08T01:49:16;0.70;;;0.70;;
8636;SDS011;4356;49.068;8.658;2023-05-08T01:51:59;0.70;;;0.70;;
8636;SDS011;4356;49.068;8.658;2023-05-08T01:54:32;0.90;;;0.90;;
8636;SDS011;4356;49.068;8.658;2023-05-08T01:57:08;0.87;;;0.87;;
8636;SDS011;4356;49.068;8.658;2023-05-08T01:59:36;1.10;;;1.10;;
8636;SDS011;4356;49.068;8.658;2023-05-08T02:02:05;1.10;;;1.10;;
8636;SDS011;4356;49.068;8.658;2023-05-08T02:04:34;0.90;;;0.90;;
8636;SDS011;4356;49.068;8.658;2023-05-08T02:07:00;1.00;;;1.00;;
8636;SDS011;4356;49.068;8.658;2023-05-08T02:09:27;1.00;;;1.00;;
8636;SDS011;4356;49.068;8.658;2023-05-08T02:11:55;0.87;;;0.87;;
8636;SDS011;4356;49.068;8.658;2023-05-08T02:14:21;0.93;;;0.93;;
8636;SDS011;4356;49.068;8.658;2023-05-08T02:16:49;0.90;;;0.90;;
8636;SDS011;4356;49.068;8.658;2023-05-08T02:19:18;1.33;;;1.33;;
8636;SDS011;4356;49.068;8.658;2023-05-08T02:21:47;0.87;;;0.87;;
8636;SDS011;4356;49.068;8.658;2023-05-08T02:24:14;1.00;;;1.00;;
8636;SDS011;4356;49.068;8.658;2023-05-08T02:26:43;1.10;;;1.10;;
8636;SDS011;4356;49.068;8.658;2023-05-08T02:29:10;0.83;;;0.83;;
8636;SDS011;4356;49.068;8.658;2023-05-08T02:31:36;0.80;;;0.80;;
8636;SDS011;4356;49.068;8.658;2023-05-08T02:34:03;0.97;;;0.97;;
8636;SDS011;4356;49.068;8.658;2023-05-08T02:36:29;0.83;;;0.83;;
8636;SDS011;4356;49.068;8.658;2023-05-08T02:38:56;1.00;;;1.00;;
8636;SDS011;4356;49.068;8.658;2023-05-08T02:41:24;1.27;;;1.27;;
8636;SDS011;4356;49.068;8.658;2023-05-08T02:43:53;0.83;;;0.83;;
8636;SDS011;4356;49.068;8.658;2023-05-08T02:46:21;0.90;;;0.90;;
8636;SDS011;4356;49.068;8.658;2023-05-08T02:53:57;1.10;;;1.10;;
8636;SDS011;4356;49.068;8.658;2023-05-08T02:56:36;1.50;;;1.40;;
8636;SDS011;4356;49.068;8.658;2023-05-08T02:59:16;1.10;;;1.10;;
8636;SDS011;4356;49.068;8.658;2023-05-08T03:04:58;0.80;;;0.80;;
8636;SDS011;4356;49.068;8.658;2023-05-08T03:07:32;1.00;;;1.00;;
8636;SDS011;4356;49.068;8.658;2023-05-08T03:10:04;2.13;;;0.83;;
8636;SDS011;4356;49.068;8.658;2023-05-08T03:12:34;1.10;;;1.10;;
8636;SDS011;4356;49.068;8.658;2023-05-08T03:15:06;1.20;;;1.20;;
8636;SDS011;4356;49.068;8.658;2023-05-08T03:17:40;1.20;;;1.20;;
8636;SDS011;4356;49.068;8.658;2023-05-08T03:20:10;1.07;;;1.07;;
8636;SDS011;4356;49.068;8.658;2023-05-08T03:22:39;1.37;;;1.37;;
8636;SDS011;4356;49.068;8.658;2023-05-08T03:25:07;0.97;;;0.97;;
8636;SDS011;4356;49.068;8.658;2023-05-08T03:27:34;1.17;;;1.17;;
8636;SDS011;4356;49.068;8.658;2023-05-08T03:30:03;0.97;;;0.97;;
8636;SDS011;4356;49.068;8.658;2023-05-08T03:32:28;0.67;;;0.67;;
8636;SDS011;4356;49.068;8.658;2023-05-08T03:34:58;0.70;;;0.70;;
8636;SDS011;4356;49.068;8.658;2023-05-08T03:37:25;1.00;;;1.00;;
8636;SDS011;4356;49.068;8.658;2023-05-08T03:39:52;1.10;;;1.10;;
8636;SDS011;4356;49.068;8.658;2023-05-08T03:42:18;1.00;;;1.00;;
8636;SDS011;4356;49.068;8.658;2023-05-08T03:44:49;1.10;;;1.10;;
8636;SDS011;4356;49.068;8.658;2023-05-08T03:47:16;0.70;;;0.70;;
8636;SDS011;4356;49.068;8.658;2023-05-08T03:49:46;1.00;;;1.00;;
8636;SDS011;4356;49.068;8.658;2023-05-08T03:52:13;1.13;;;1.13;;
8636;SDS011;4356;49.068;8.658;2023-05-08T03:54:39;0.97;;;0.97;;
8636;SDS011;4356;49.068;8.658;2023-05-08T03:57:05;1.10;;;1.10;;
8636;SDS011;4356;49.068;8.658;2023-05-08T03:59:46;0.80;;;0.80;;
8636;SDS011;4356;49.068;8.658;2023-05-08T04:02:24;1.13;;;1.13;;
8636;SDS011;4356;49.068;8.658;2023-05-08T04:05:01;1.27;;;1.27;;
8636;SDS011;4356;49.068;8.658;2023-05-08T04:07:36;1.10;;;1.10;;
8636;SDS011;4356;49.068;8.658;2023-05-08T04:15:37;1.10;;;1.10;;
8636;SDS011;4356;49.068;8.658;2023-05-08T04:18:08;1.47;;;1.47;;
8636;SDS011;4356;49.068;8.658;2023-05-08T04:20:39;1.77;;;1.73;;
8636;SDS011;4356;49.068;8.658;2023-05-08T04:23:06;1.83;;;1.70;;
8636;SDS011;4356;49.068;8.658;2023-05-08T04:25:35;1.97;;;1.93;;
8636;SDS011;4356;49.068;8.658;2023-05-08T04:28:03;1.10;;;1.10;;
8636;SDS011;4356;49.068;8.658;2023-05-08T04:30:29;1.40;;;1.40;;
8636;SDS011;4356;49.068;8.658;2023-05-08T04:32:55;1.37;;;1.37;;
8636;SDS011;4356;49.068;8.658;2023-05-08T04:35:22;1.53;;;1.53;;
8636;SDS011;4356;49.068;8.658;2023-05-08T04:37:47;1.30;;;1.30;;
8636;SDS011;4356;49.068;8.658;2023-05-08T04:40:13;1.70;;;1.70;;
8636;SDS011;4356;49.068;8.658;2023-05-08T04:42:38;1.03;;;1.03;;
8636;SDS011;4356;49.068;8.658;2023-05-08T04:45:07;1.43;;;1.43;;
8636;SDS011;4356;49.068;8.658;2023-05-08T04:47:33;1.77;;;1.77;;
8636;SDS011;4356;49.068;8.658;2023-05-08T04:49:59;1.90;;;1.80;;
8636;SDS011;4356;49.068;8.658;2023-05-08T04:52:25;2.07;;;1.97;;
8636;SDS011;4356;49.068;8.658;2023-05-08T04:54:51;1.63;;;1.63;;
8636;SDS011;4356;49.068;8.658;2023-05-08T04:57:17;1.93;;;1.83;;
8636;SDS011;4356;49.068;8.658;2023-05-08T04:59:42;1.67;;;1.67;;
8636;SDS011;4356;49.068;8.658;2023-05-08T05:02:08;2.03;;;1.50;;
8636;SDS011;4356;49.068;8.658;2023-05-08T05:04:34;1.87;;;1.80;;
8636;SDS011;4356;49.068;8.658;2023-05-08T05:07:01;1.40;;;1.40;;
8636;SDS011;4356;49.068;8.658;2023-05-08T05:09:30;1.50;;;1.50;;
8636;SDS011;4356;49.068;8.658;2023-05-08T05:11:58;1.17;;;1.17;;
8636;SDS011;4356;49.068;8.658;2023-05-08T05:14:24;1.23;;;1.23;;
8636;SDS011;4356;49.068;8.658;2023-05-08T05:16:50;1.17;;;1.17;;
8636;SDS011;4356;49.068;8.658;2023-05-08T05:19:15;1.30;;;1.30;;
8636;SDS011;4356;49.068;8.658;2023-05-08T05:21:41;1.50;;;1.50;;
8636;SDS011;4356;49.068;8.658;2023-05-08T05:24:06;1.70;;;1.60;;
8636;SDS011;4356;49.068;8.658;2023-05-08T05:26:32;1.47;;;1.47;;
8636;SDS011;4356;49.068;8.658;2023-05-08T05:28:58;1.60;;;1.60;;
8636;SDS011;4356;49.068;8.658;2023-05-08T05:31:24;2.10;;;2.00;;
8636;SDS011;4356;49.068;8.658;2023-05-08T05:33:50;1.77;;;1.77;;
8636;SDS011;4356;49.068;8.658;2023-05-08T05:36:16;1.63;;;1.53;;
8636;SDS011;4356;49.068;8.658;2023-05-08T05:38:41;1.90;;;1.80;;
8636;SDS011;4356;49.068;8.658;2023-05-08T05:41:07;2.00;;;1.90;;
8636;SDS011;4356;49.068;8.658;2023-05-08T05:43:33;1.57;;;1.57;;
8636;SDS011;4356;49.068;8.658;2023-05-08T05:46:06;1.93;;;1.90;;
8636;SDS011;4356;49.068;8.658;2023-05-08T05:48:33;1.90;;;1.80;;
8636;SDS011;4356;49.068;8.658;2023-05-08T05:50:59;2.10;;;2.07;;
8636;SDS011;4356;49.068;8.658;2023-05-08T05:53:25;1.93;;;1.83;;
8636;SDS011;4356;49.068;8.658;2023-05-08T05:55:51;2.20;;;2.10;;
8636;SDS011;4356;49.068;8.658;2023-05-08T05:58:17;1.83;;;1.80;;
8636;SDS011;4356;49.068;8.658;2023-05-08T06:00:43;1.93;;;1.83;;
8636;SDS011;4356;49.068;8.658;2023-05-08T06:03:09;2.10;;;2.00;;
8636;SDS011;4356;49.068;8.658;2023-05-08T06:05:37;1.63;;;1.63;;
8636;SDS011;4356;49.068;8.658;2023-05-08T06:08:05;2.00;;;1.90;;
8636;SDS011;4356;49.068;8.658;2023-05-08T06:10:32;2.13;;;2.03;;
8636;SDS011;4356;49.068;8.658;2023-05-08T06:12:58;1.80;;;1.80;;
8636;SDS011;4356;49.068;8.658;2023-05-08T06:15:23;1.97;;;1.90;;
8636;SDS011;4356;49.068;8.658;2023-05-08T06:17:49;1.63;;;1.63;;
8636;SDS011;4356;49.068;8.658;2023-05-08T06:20:15;1.37;;;1.37;;
8636;SDS011;4356;49.068;8.658;2023-05-08T06:22:40;1.90;;;1.80;;
8636;SDS011;4356;49.068;8.658;2023-05-08T06:25:06;2.20;;;2.10;;
8636;SDS011;4356;49.068;8.658;2023-05-08T06:27:32;1.27;;;1.27;;
8636;SDS011;4356;49.068;8.658;2023-05-08T06:29:59;1.67;;;1.57;;
8636;SDS011;4356;49.068;8.658;2023-05-08T06:32:25;1.47;;;1.47;;
8636;SDS011;4356;49.068;8.658;2023-05-08T06:34:51;1.33;;;1.33;;
8636;SDS011;4356;49.068;8.658;2023-05-08T06:37:16;1.23;;;1.13;;
8636;SDS011;4356;49.068;8.658;2023-05-08T06:39:42;1.43;;;1.43;;
8636;SDS011;4356;49.068;8.658;2023-05-08T06:42:08;1.57;;;1.57;;
8636;SDS011;4356;49.068;8.658;2023-05-08T06:44:34;1.13;;;1.13;;
8636;SDS011;4356;49.068;8.658;2023-05-08T06:47:00;1.63;;;1.63;;
8636;SDS011;4356;49.068;8.658;2023-05-08T06:49:25;1.27;;;1.23;;
8636;SDS011;4356;49.068;8.658;2023-05-08T06:51:51;1.20;;;1.20;;
8636;SDS011;4356;49.068;8.658;2023-05-08T06:54:17;1.77;;;1.67;;
8636;SDS011;4356;49.068;8.658;2023-05-08T06:56:43;1.30;;;1.30;;
8636;SDS011;4356;49.068;8.658;2023-05-08T06:59:08;1.90;;;1.83;;
8636;SDS011;4356;49.068;8.658;2023-05-08T07:01:34;1.77;;;1.77;;
8636;SDS011;4356;49.068;8.658;2023-05-08T07:04:01;1.47;;;1.47;;
8636;SDS011;4356;49.068;8.658;2023-05-08T07:06:28;1.70;;;1.70;;
8636;SDS011;4356;49.068;8.658;2023-05-08T07:08:55;1.60;;;1.60;;
8636;SDS011;4356;49.068;8.658;2023-05-08T07:11:21;1.10;;;1.10;;
8636;SDS011;4356;49.068;8.658;2023-05-08T07:13:46;1.70;;;1.60;;
8636;SDS011;4356;49.068;8.658;2023-05-08T07:16:13;1.27;;;1.27;;
8636;SDS011;4356;49.068;8.658;2023-05-08T07:18:39;1.30;;;1.30;;
8636;SDS011;4356;49.068;8.658;2023-05-08T07:21:05;1.50;;;1.50;;
8636;SDS011;4356;49.068;8.658;2023-05-08T07:23:31;1.63;;;1.63;;
8636;SDS011;4356;49.068;8.658;2023-05-08T07:25:56;1.47;;;1.47;;
8636;SDS011;4356;49.068;8.658;2023-05-08T07:28:22;1.30;;;1.30;;
8636;SDS011;4356;49.068;8.658;2023-05-08T07:30:48;1.53;;;1.53;;
8636;SDS011;4356;49.068;8.658;2023-05-08T07:33:14;1.70;;;1.70;;
8636;SDS011;4356;49.068;8.658;2023-05-08T07:35:39;1.67;;;1.57;;
8636;SDS011;4356;49.068;8.658;2023-05-08T07:38:06;1.37;;;1.37;;
8636;SDS011;4356;49.068;8.658;2023-05-08T07:40:32;1.40;;;1.40;;
8636;SDS011;4356;49.068;8.658;2023-05-08T07:42:58;1.60;;;1.60;;
8636;SDS011;4356;49.068;8.658;2023-05-08T07:45:24;1.23;;;1.23;;
8636;SDS011;4356;49.068;8.658;2023-05-08T07:47:50;1.73;;;1.63;;
8636;SDS011;4356;49.068;8.658;2023-05-08T07:50:17;1.47;;;1.47;;
8636;SDS011;4356;49.068;8.658;2023-05-08T07:52:43;1.43;;;1.43;;
8636;SDS011;4356;49.068;8.658;2023-05-08T07:55:09;1.40;;;1.40;;
8636;SDS011;4356;49.068;8.658;2023-05-08T07:57:38;1.37;;;1.37;;
8636;SDS011;4356;49.068;8.658;2023-05-08T08:00:05;1.13;;;1.13;;
8636;SDS011;4356;49.068;8.658;2023-05-08T08:02:41;1.30;;;1.30;;
8636;SDS011;4356;49.068;8.658;2023-05-08T08:05:07;2.23;;;1.90;;
8636;SDS011;4356;49.068;8.658;2023-05-08T08:07:33;1.70;;;1.60;;
8636;SDS011;4356;49.068;8.658;2023-05-08T08:09:59;1.73;;;1.63;;
8636;SDS011;4356;49.068;8.658;2023-05-08T08:12:25;1.43;;;1.43;;
8636;SDS011;4356;49.068;8.658;2023-05-08T08:14:51;1.53;;;1.50;;
8636;SDS011;4356;49.068;8.658;2023-05-08T08:17:17;1.43;;;1.43;;
8636;SDS011;4356;49.068;8.658;2023-05-08T08:19:42;1.77;;;1.77;;
8636;SDS011;4356;49.068;8.658;2023-05-08T08:22:08;1.90;;;1.80;;
8636;SDS011;4356;49.068;8.658;2023-05-08T08:24:34;1.60;;;1.60;;
8636;SDS011;4356;49.068;8.658;2023-05-08T08:26:59;1.53;;;1.47;;
8636;SDS011;4356;49.068;8.658;2023-05-08T08:29:25;1.60;;;1.60;;
8636;SDS011;4356;49.068;8.658;2023-05-08T08:31:51;1.43;;;1.43;;
8636;SDS011;4356;49.068;8.658;2023-05-08T08:34:17;1.57;;;1.57;;
8636;SDS011;4356;49.068;8.658;2023-05-08T08:36:42;2.27;;;2.17;;
8636;SDS011;4356;49.068;8.658;2023-05-08T08:39:08;2.00;;;1.90;;
8636;SDS011;4356;49.068;8.658;2023-05-08T08:41:33;1.60;;;1.50;;
8636;SDS011;4356;49.068;8.658;2023-05-08T08:43:59;1.97;;;1.97;;
8636;SDS011;4356;49.068;8.658;2023-05-08T08:46:25;1.60;;;1.60;;
8636;SDS011;4356;49.068;8.658;2023-05-08T08:48:53;1.70;;;1.70;;
8636;SDS011;4356;49.068;8.658;2023-05-08T08:51:30;1.80;;;1.70;;
8636;SDS011;4356;49.068;8.658;2023-05-08T08:54:19;1.50;;;1.43;;
8636;SDS011;4356;49.068;8.658;2023-05-08T08:56:45;1.63;;;1.63;;
8636;SDS011;4356;49.068;8.658;2023-05-08T08:59:14;1.80;;;1.80;;
8636;SDS011;4356;49.068;8.658;2023-05-08T09:01:43;1.70;;;1.60;;
8636;SDS011;4356;49.068;8.658;2023-05-08T09:04:11;1.60;;;1.60;;
8636;SDS011;4356;49.068;8.658;2023-05-08T09:06:38;1.67;;;1.67;;
8636;SDS011;4356;49.068;8.658;2023-05-08T09:09:06;1.93;;;1.83;;
8636;SDS011;4356;49.068;8.658;2023-05-08T09:11:33;1.73;;;1.73;;
8636;SDS011;4356;49.068;8.658;2023-05-08T09:14:00;1.87;;;1.87;;
8636;SDS011;4356;49.068;8.658;2023-05-08T09:16:27;2.10;;;2.00;;
8636;SDS011;4356;49.068;8.658;2023-05-08T09:18:53;1.73;;;1.73;;
8636;SDS011;4356;49.068;8.658;2023-05-08T09:21:18;1.93;;;1.93;;
8636;SDS011;4356;49.068;8.658;2023-05-08T09:23:56;2.47;;;2.27;;
8636;SDS011;4356;49.068;8.658;2023-05-08T09:26:32;2.00;;;1.90;;
8636;SDS011;4356;49.068;8.658;2023-05-08T09:29:10;2.30;;;2.20;;
8636;SDS011;4356;49.068;8.658;2023-05-08T09:31:41;1.87;;;1.87;;
8636;SDS011;4356;49.068;8.658;2023-05-08T09:34:09;2.17;;;2.07;;
8636;SDS011;4356;49.068;8.658;2023-05-08T09:36:36;2.07;;;1.97;;
8636;SDS011;4356;49.068;8.658;2023-05-08T09:39:05;1.90;;;1.80;;
8636;SDS011;4356;49.068;8.658;2023-05-08T09:41:35;2.37;;;2.27;;
8636;SDS011;4356;49.068;8.658;2023-05-08T09:44:02;2.00;;;1.90;;
8636;SDS011;4356;49.068;8.658;2023-05-08T09:46:30;2.00;;;1.90;;
8636;SDS011;4356;49.068;8.658;2023-05-08T09:48:58;2.13;;;2.03;;
8636;SDS011;4356;49.068;8.658;2023-05-08T09:51:26;2.30;;;2.20;;
8636;SDS011;4356;49.068;8.658;2023-05-08T09:53:53;1.80;;;1.70;;
8636;SDS011;4356;49.068;8.658;2023-05-08T09:58:55;2.57;;;2.47;;
8636;SDS011;4356;49.068;8.658;2023-05-08T10:01:27;2.80;;;2.60;;
8636;SDS011;4356;49.068;8.658;2023-05-08T10:03:53;1.70;;;1.70;;
8636;SDS011;4356;49.068;8.658;2023-05-08T10:06:19;2.00;;;1.90;;
8636;SDS011;4356;49.068;8.658;2023-05-08T10:08:45;2.00;;;1.90;;
8636;SDS011;4356;49.068;8.658;2023-05-08T10:11:12;3.67;;;2.23;;
8636;SDS011;4356;49.068;8.658;2023-05-08T10:13:45;2.50;;;2.40;;
8636;SDS011;4356;49.068;8.658;2023-05-08T10:16:15;2.80;;;2.60;;
8636;SDS011;4356;49.068;8.658;2023-05-08T10:18:48;1.97;;;1.87;;
8636;SDS011;4356;49.068;8.658;2023-05-08T10:21:16;2.33;;;2.23;;
8636;SDS011;4356;49.068;8.658;2023-05-08T10:23:42;2.17;;;2.07;;
8636;SDS011;4356;49.068;8.658;2023-05-08T10:26:12;2.40;;;2.30;;
8636;SDS011;4356;49.068;8.658;2023-05-08T10:31:16;2.37;;;2.27;;
8636;SDS011;4356;49.068;8.658;2023-05-08T10:33:43;2.43;;;2.30;;
8636;SDS011;4356;49.068;8.658;2023-05-08T10:36:10;2.50;;;2.40;;
8636;SDS011;4356;49.068;8.658;2023-05-08T10:38:37;1.93;;;1.93;;
8636;SDS011;4356;49.068;8.658;2023-05-08T10:41:05;2.07;;;1.97;;
8636;SDS011;4356;49.068;8.658;2023-05-08T10:43:31;2.47;;;2.37;;
8636;SDS011;4356;49.068;8.658;2023-05-08T10:45:59;2.40;;;2.30;;
8636;SDS011;4356;49.068;8.658;2023-05-08T10:48:42;2.03;;;1.97;;
8636;SDS011;4356;49.068;8.658;2023-05-08T10:51:22;1.80;;;1.80;;
8636;SDS011;4356;49.068;8.658;2023-05-08T10:54:11;2.33;;;2.23;;
8636;SDS011;4356;49.068;8.658;2023-05-08T10:56:43;1.47;;;1.47;;
8636;SDS011;4356;49.068;8.658;2023-05-08T10:59:16;1.63;;;1.63;;
8636;SDS011;4356;49.068;8.658;2023-05-08T11:01:46;1.43;;;1.43;;
8636;SDS011;4356;49.068;8.658;2023-05-08T11:04:19;1.73;;;1.73;;
8636;SDS011;4356;49.068;8.658;2023-05-08T11:06:46;2.40;;;2.30;;
8636;SDS011;4356;49.068;8.658;2023-05-08T11:09:26;2.20;;;2.10;;
8636;SDS011;4356;49.068;8.658;2023-05-08T11:12:04;1.93;;;1.93;;
8636;SDS011;4356;49.068;8.658;2023-05-08T11:14:30;3.70;;;2.17;;
8636;SDS011;4356;49.068;8.658;2023-05-08T11:19:24;2.33;;;2.13;;
8636;SDS011;4356;49.068;8.658;2023-05-08T11:24:35;1.73;;;1.70;;
8636;SDS011;4356;49.068;8.658;2023-05-08T11:27:02;1.77;;;1.67;;
8636;SDS011;4356;49.068;8.658;2023-05-08T11:29:28;2.17;;;2.07;;
8636;SDS011;4356;49.068;8.658;2023-05-08T11:31:53;1.53;;;1.53;;
8636;SDS011;4356;49.068;8.658;2023-05-08T11:37:10;2.10;;;2.00;;
8636;SDS011;4356;49.068;8.658;2023-05-08T11:39:41;2.00;;;1.90;;
8636;SDS011;4356;49.068;8.658;2023-05-08T11:45:10;1.83;;;1.73;;
8636;SDS011;4356;49.068;8.658;2023-05-08T11:50:10;1.97;;;1.87;;
8636;SDS011;4356;49.068;8.658;2023-05-08T11:52:37;2.10;;;2.00;;
8636;SDS011;4356;49.068;8.658;2023-05-08T11:55:06;1.30;;;1.30;;
8636;SDS011;4356;49.068;8.658;2023-05-08T11:57:33;1.53;;;1.50;;
8636;SDS011;4356;49.068;8.658;2023-05-08T12:00:03;1.90;;;1.87;;
8636;SDS011;4356;49.068;8.658;2023-05-08T12:05:06;2.50;;;2.30;;
8636;SDS011;4356;49.068;8.658;2023-05-08T12:07:32;2.10;;;2.00;;
8636;SDS011;4356;49.068;8.658;2023-05-08T12:10:10;2.13;;;2.03;;
8636;SDS011;4356;49.068;8.658;2023-05-08T12:12:40;2.20;;;2.10;;
8636;SDS011;4356;49.068;8.658;2023-05-08T12:15:11;2.37;;;2.27;;
8636;SDS011;4356;49.068;8.658;2023-05-08T12:17:37;1.90;;;1.80;;
8636;SDS011;4356;49.068;8.658;2023-05-08T12:20:10;2.00;;;1.90;;
8636;SDS011;4356;49.068;8.658;2023-05-08T12:22:37;2.10;;;2.00;;
8636;SDS011;4356;49.068;8.658;2023-05-08T12:25:07;2.33;;;2.23;;
8636;SDS011;4356;49.068;8.658;2023-05-08T12:27:35;2.30;;;2.20;;
8636;SDS011;4356;49.068;8.658;2023-05-08T12:30:05;2.50;;;2.40;;
8636;SDS011;4356;49.068;8.658;2023-05-08T12:32:33;2.57;;;2.47;;
8636;SDS011;4356;49.068;8.658;2023-05-08T12:35:01;2.13;;;2.03;;
8636;SDS011;4356;49.068;8.658;2023-05-08T12:37:27;2.50;;;2.30;;
8636;SDS011;4356;49.068;8.658;2023-05-08T12:39:53;2.17;;;2.10;;
8636;SDS011;4356;49.068;8.658;2023-05-08T12:42:19;2.57;;;2.47;;
8636;SDS011;4356;49.068;8.658;2023-05-08T12:44:51;2.53;;;2.43;;
8636;SDS011;4356;49.068;8.658;2023-05-08T12:47:18;2.43;;;2.33;;
8636;SDS011;4356;49.068;8.658;2023-05-08T12:49:44;2.87;;;2.77;;
8636;SDS011;4356;49.068;8.658;2023-05-08T12:52:13;2.63;;;2.43;;
8636;SDS011;4356;49.068;8.658;2023-05-08T12:54:40;2.50;;;2.40;;
8636;SDS011;4356;49.068;8.658;2023-05-08T12:57:15;2.60;;;2.50;;
8636;SDS011;4356;49.068;8.658;2023-05-08T12:59:42;2.90;;;2.70;;
8636;SDS011;4356;49.068;8.658;2023-05-08T13:04:39;2.50;;;2.40;;
8636;SDS011;4356;49.068;8.658;2023-05-08T13:07:04;2.83;;;2.70;;
8636;SDS011;4356;49.068;8.658;2023-05-08T13:09:30;2.93;;;2.83;;
8636;SDS011;4356;49.068;8.658;2023-05-08T13:11:56;3.00;;;2.80;;
8636;SDS011;4356;49.068;8.658;2023-05-08T13:14:25;2.87;;;2.77;;
8636;SDS011;4356;49.068;8.658;2023-05-08T13:16:50;2.73;;;2.63;;
8636;SDS011;4356;49.068;8.658;2023-05-08T13:19:16;2.80;;;2.70;;
8636;SDS011;4356;49.068;8.658;2023-05-08T13:21:43;2.83;;;2.73;;
8636;SDS011;4356;49.068;8.658;2023-05-08T13:24:11;3.23;;;3.03;;
8636;SDS011;4356;49.068;8.658;2023-05-08T13:26:37;3.37;;;3.17;;
8636;SDS011;4356;49.068;8.658;2023-05-08T13:29:02;3.33;;;3.20;;
8636;SDS011;4356;49.068;8.658;2023-05-08T13:31:28;2.93;;;2.83;;
8636;SDS011;4356;49.068;8.658;2023-05-08T13:33:53;2.57;;;2.47;;
8636;SDS011;4356;49.068;8.658;2023-05-08T13:36:19;2.83;;;2.63;;
8636;SDS011;4356;49.068;8.658;2023-05-08T13:38:45;2.90;;;2.80;;
8636;SDS011;4356;49.068;8.658;2023-05-08T13:41:10;2.67;;;2.57;;
8636;SDS011;4356;49.068;8.658;2023-05-08T13:43:36;2.60;;;2.50;;
8636;SDS011;4356;49.068;8.658;2023-05-08T13:46:02;2.60;;;2.50;;
8636;SDS011;4356;49.068;8.658;2023-05-08T13:48:30;2.90;;;2.70;;
8636;SDS011;4356;49.068;8.658;2023-05-08T13:50:55;2.60;;;2.50;;
8636;SDS011;4356;49.068;8.658;2023-05-08T13:53:21;3.07;;;2.90;;
8636;SDS011;4356;49.068;8.658;2023-05-08T13:55:46;2.90;;;2.70;;
8636;SDS011;4356;49.068;8.658;2023-05-08T13:58:12;3.30;;;3.13;;
8636;SDS011;4356;49.068;8.658;2023-05-08T14:00:37;2.70;;;2.60;;
8636;SDS011;4356;49.068;8.658;2023-05-08T14:03:03;2.63;;;2.53;;
8636;SDS011;4356;49.068;8.658;2023-05-08T14:05:28;2.40;;;2.30;;
8636;SDS011;4356;49.068;8.658;2023-05-08T14:07:54;2.77;;;2.67;;
8636;SDS011;4356;49.068;8.658;2023-05-08T14:10:20;2.67;;;2.57;;
8636;SDS011;4356;49.068;8.658;2023-05-08T14:12:45;2.63;;;2.53;;
8636;SDS011;4356;49.068;8.658;2023-05-08T14:15:11;2.87;;;2.77;;
8636;SDS011;4356;49.068;8.658;2023-05-08T14:20:03;2.53;;;2.43;;
8636;SDS011;4356;49.068;8.658;2023-05-08T14:22:29;2.80;;;2.63;;
8636;SDS011;4356;49.068;8.658;2023-05-08T14:24:57;2.50;;;2.40;;
8636;SDS011;4356;49.068;8.658;2023-05-08T14:27:24;2.67;;;2.57;;
8636;SDS011;4356;49.068;8.658;2023-05-08T14:29:49;3.07;;;2.90;;
8636;SDS011;4356;49.068;8.658;2023-05-08T14:32:17;2.67;;;2.57;;
8636;SDS011;4356;49.068;8.658;2023-05-08T14:34:43;3.27;;;3.07;;
8636;SDS011;4356;49.068;8.658;2023-05-08T14:37:08;2.80;;;2.70;;
8636;SDS011;4356;49.068;8.658;2023-05-08T14:39:34;3.13;;;2.93;;
8636;SDS011;4356;49.068;8.658;2023-05-08T14:42:00;2.77;;;2.60;;
8636;SDS011;4356;49.068;8.658;2023-05-08T14:44:26;2.80;;;2.70;;
8636;SDS011;4356;49.068;8.658;2023-05-08T14:46:52;2.50;;;2.40;;
8636;SDS011;4356;49.068;8.658;2023-05-08T14:49:18;3.10;;;2.90;;
8636;SDS011;4356;49.068;8.658;2023-05-08T14:51:43;2.80;;;2.70;;
8636;SDS011;4356;49.068;8.658;2023-05-08T14:54:09;2.60;;;2.50;;
8636;SDS011;4356;49.068;8.658;2023-05-08T14:56:35;2.43;;;2.33;;
8636;SDS011;4356;49.068;8.658;2023-05-08T14:59:00;3.57;;;3.30;;
8636;SDS011;4356;49.068;8.658;2023-05-08T15:01:26;2.80;;;2.70;;
8636;SDS011;4356;49.068;8.658;2023-05-08T15:03:51;3.07;;;2.87;;
8636;SDS011;4356;49.068;8.658;2023-05-08T15:06:20;3.00;;;2.90;;
8636;SDS011;4356;49.068;8.658;2023-05-08T15:08:50;2.37;;;2.27;;
8636;SDS011;4356;49.068;8.658;2023-05-08T15:11:18;3.07;;;2.80;;
8636;SDS011;4356;49.068;8.658;2023-05-08T15:13:44;3.20;;;3.00;;
8636;SDS011;4356;49.068;8.658;2023-05-08T15:16:10;3.17;;;2.97;;
8636;SDS011;4356;49.068;8.658;2023-05-08T15:18:35;2.53;;;2.43;;
8636;SDS011;4356;49.068;8.658;2023-05-08T15:21:01;2.93;;;2.73;;
8636;SDS011;4356;49.068;8.658;2023-05-08T15:23:26;2.80;;;2.60;;
8636;SDS011;4356;49.068;8.658;2023-05-08T15:25:52;3.07;;;2.87;;
8636;SDS011;4356;49.068;8.658;2023-05-08T15:28:18;3.50;;;3.30;;
8636;SDS011;4356;49.068;8.658;2023-05-08T15:30:46;3.03;;;2.90;;
8636;SDS011;4356;49.068;8.658;2023-05-08T15:33:12;2.40;;;2.30;;
8636;SDS011;4356;49.068;8.658;2023-05-08T15:35:38;3.37;;;3.17;;
8636;SDS011;4356;49.068;8.658;2023-05-08T15:38:04;2.70;;;2.60;;
8636;SDS011;4356;49.068;8.658;2023-05-08T15:40:31;2.90;;;2.70;;
8636;SDS011;4356;49.068;8.658;2023-05-08T15:42:57;2.60;;;2.50;;
8636;SDS011;4356;49.068;8.658;2023-05-08T15:45:23;2.70;;;2.60;;
8636;SDS011;4356;49.068;8.658;2023-05-08T15:47:48;2.37;;;2.27;;
8636;SDS011;4356;49.068;8.658;2023-05-08T15:50:14;2.83;;;2.67;;
8636;SDS011;4356;49.068;8.658;2023-05-08T15:52:39;2.73;;;2.63;;
8636;SDS011;4356;49.068;8.658;2023-05-08T15:55:05;2.90;;;2.80;;
8636;SDS011;4356;49.068;8.658;2023-05-08T15:57:31;3.27;;;3.07;;
8636;SDS011;4356;49.068;8.658;2023-05-08T15:59:57;2.47;;;2.37;;
8636;SDS011;4356;49.068;8.658;2023-05-08T16:02:22;2.77;;;2.67;;
8636;SDS011;4356;49.068;8.658;2023-05-08T16:04:49;2.57;;;2.47;;
8636;SDS011;4356;49.068;8.658;2023-05-08T16:07:15;2.63;;;2.53;;
8636;SDS011;4356;49.068;8.658;2023-05-08T16:09:41;2.57;;;2.37;;
8636;SDS011;4356;49.068;8.658;2023-05-08T16:12:06;2.43;;;2.33;;
8636;SDS011;4356;49.068;8.658;2023-05-08T16:14:32;2.80;;;2.63;;
8636;SDS011;4356;49.068;8.658;2023-05-08T16:16:57;3.00;;;2.90;;
8636;SDS011;4356;49.068;8.658;2023-05-08T16:19:24;3.27;;;3.07;;